Time;durP1;ratioP1;P1;durP2;ratioP2;P2;SDS_P1;SDS_P2;PMS_P1;PMS_P2;Temp;Humidity;BMP_temperature;BMP_pressure;BME280_temperature;BME280_humidity;BME280_pressure;Samples;Min_cycle;Max_cycle;Signal;HPM_P1;HPM_P2
2022/10/28 00:02:10;;;;;;;12.50;9.02;;;15.80;78.40;;;;;;5032402;28;20396;-76
2022/10/28 00:04:36;;;;;;;15.40;10.85;;;15.80;78.70;;;;;;5051870;28;20499;-76
2022/10/28 00:07:02;;;;;;;19.05;10.55;;;15.70;79.00;;;;;;5032212;28;20077;-73
2022/10/28 00:09:28;;;;;;;14.45;10.63;;;15.70;79.50;;;;;;5037586;28;20043;-73
2022/10/28 00:11:54;;;;;;;15.75;10.70;;;15.70;79.90;;;;;;5051959;28;20127;-73
2022/10/28 00:14:20;;;;;;;14.85;10.68;;;15.60;80.10;;;;;;5037626;28;20037;-72
2022/10/28 00:16:46;;;;;;;18.40;11.13;;;15.60;80.40;;;;;;5031584;28;20050;-73
2022/10/28 00:19:13;;;;;;;14.18;10.60;;;15.60;80.50;;;;;;5018903;28;20124;-73
2022/10/28 00:21:40;;;;;;;13.68;10.57;;;15.60;80.70;;;;;;5068412;28;20040;-73
2022/10/28 00:24:08;;;;;;;17.60;10.50;;;15.60;80.90;;;;;;5051526;28;20451;-72
2022/10/28 00:26:37;;;;;;;13.13;10.63;;;15.60;81.00;;;;;;5053816;28;20037;-72
2022/10/28 00:29:05;;;;;;;16.08;10.60;;;15.50;80.90;;;;;;5033563;28;20083;-72
2022/10/28 00:31:32;;;;;;;17.80;11.02;;;15.50;81.00;;;;;;5068323;28;20393;-72
2022/10/28 00:34:02;;;;;;;14.43;10.70;;;15.50;81.10;;;;;;5038882;28;20443;-72
2022/10/28 00:36:34;;;;;;;16.90;10.27;;;15.50;81.20;;;;;;5031284;28;20037;-72
2022/10/28 01:25:06;;;;;;;14.73;8.60;;;15.20;81.40;;;;;;4988882;28;20100;-73
2022/10/28 01:27:59;;;;;;;11.82;9.10;;;15.20;81.30;;;;;;4975459;28;20039;-76
2022/10/28 01:30:56;;;;;;;14.43;8.68;;;15.20;81.30;;;;;;4982327;28;20365;-75
2022/10/28 01:34:00;;;;;;;11.40;9.15;;;15.10;81.30;;;;;;4972957;28;20107;-75
2022/10/28 01:36:41;;;;;;;13.25;8.32;;;15.10;81.30;;;;;;4964484;28;20447;-75
2022/10/28 02:05:38;;;;;;;20.30;11.75;;;15.00;81.40;;;;;;5006069;28;20052;-75
2022/10/28 02:08:15;;;;;;;16.45;11.52;;;15.00;81.70;;;;;;5011261;28;20049;-75
2022/10/28 02:10:59;;;;;;;19.60;11.85;;;14.90;81.90;;;;;;5014608;28;20499;-76
2022/10/28 02:13:50;;;;;;;17.80;11.68;;;15.00;82.20;;;;;;4998395;28;20432;-75
2022/10/28 02:16:22;;;;;;;18.30;11.82;;;15.00;82.30;;;;;;4996043;28;20042;-72
2022/10/28 02:19:05;;;;;;;16.35;10.45;;;14.90;82.50;;;;;;4998068;28;20037;-72
2022/10/28 02:21:50;;;;;;;17.30;11.90;;;15.00;82.60;;;;;;4997617;28;20484;-72
2022/10/28 02:24:26;;;;;;;13.48;10.30;;;15.00;82.70;;;;;;4997414;28;20124;-72
2022/10/28 02:27:00;;;;;;;15.40;11.20;;;15.00;82.70;;;;;;4997316;28;20076;-72
2022/10/28 02:29:30;;;;;;;;;;;14.90;82.60;;;;;;4998513;28;20045;-72
2022/10/28 02:32:04;;;;;;;13.13;10.18;;;14.90;82.20;;;;;;4997200;28;19921;-72
2022/10/28 02:34:35;;;;;;;17.75;10.88;;;14.90;82.60;;;;;;4997339;28;20052;-72
2022/10/28 02:37:06;;;;;;;14.75;9.65;;;14.90;82.60;;;;;;4997479;28;20120;-75
2022/10/28 02:39:38;;;;;;;14.93;10.57;;;14.90;82.70;;;;;;4998061;28;20042;-75
2022/10/28 02:42:09;;;;;;;15.60;10.95;;;14.90;82.60;;;;;;4997601;28;20042;-75
2022/10/28 02:44:39;;;;;;;19.20;11.90;;;14.90;82.60;;;;;;4997675;28;20050;-75
2022/10/28 02:47:12;;;;;;;19.95;11.50;;;14.90;82.60;;;;;;4997592;28;20046;-75
2022/10/28 02:49:41;;;;;;;15.40;12.45;;;14.90;82.70;;;;;;4997594;28;20041;-75
2022/10/28 02:52:07;;;;;;;18.77;11.98;;;14.80;82.70;;;;;;4981380;28;20049;-75
2022/10/28 02:54:53;;;;;;;18.38;12.45;;;14.80;82.70;;;;;;4997560;28;20030;-75
2022/10/28 02:57:23;;;;;;;16.27;11.85;;;14.90;82.80;;;;;;4994478;28;20500;-75
2022/10/28 02:59:57;;;;;;;17.48;11.60;;;14.80;82.90;;;;;;4997406;28;20052;-75
2022/10/28 03:02:23;;;;;;;19.67;12.43;;;14.80;83.00;;;;;;5008197;28;20484;-75
2022/10/28 03:04:49;;;;;;;17.50;11.55;;;14.80;83.00;;;;;;5015168;28;20053;-75
2022/10/28 03:07:15;;;;;;;17.63;11.65;;;14.80;83.00;;;;;;5000191;28;20112;-75
2022/10/28 03:09:41;;;;;;;18.45;11.52;;;14.80;83.00;;;;;;5000735;28;20037;-75
2022/10/28 03:12:06;;;;;;;14.75;11.23;;;14.80;83.40;;;;;;5016701;28;20038;-76
2022/10/28 03:14:32;;;;;;;12.40;10.05;;;14.80;83.00;;;;;;5016043;28;20061;-75
2022/10/28 03:16:58;;;;;;;12.68;9.57;;;14.80;82.90;;;;;;5016375;28;20514;-75
2022/10/28 03:19:23;;;;;;;10.77;8.90;;;14.80;82.80;;;;;;5016577;28;20045;-75
2022/10/28 03:21:49;;;;;;;12.50;8.68;;;14.70;82.70;;;;;;5016767;28;20064;-75
2022/10/28 03:24:15;;;;;;;10.50;8.57;;;14.70;82.70;;;;;;5016416;28;20044;-75
2022/10/28 03:26:41;;;;;;;14.27;10.23;;;14.70;82.60;;;;;;5016340;28;20048;-76
2022/10/28 03:29:06;;;;;;;10.85;9.13;;;14.70;82.60;;;;;;5016100;28;20048;-75
2022/10/28 03:31:32;;;;;;;10.45;8.52;;;14.70;82.50;;;;;;5015843;28;20411;-72
2022/10/28 03:33:58;;;;;;;10.73;8.05;;;14.70;82.50;;;;;;5015935;28;20404;-72
2022/10/28 03:36:23;;;;;;;9.00;7.43;;;14.60;82.50;;;;;;5015740;28;20234;-72
2022/10/28 03:38:49;;;;;;;10.35;7.65;;;14.70;82.40;;;;;;5018715;28;20048;-72
2022/10/28 03:41:15;;;;;;;15.55;9.77;;;14.60;82.30;;;;;;4999196;28;20033;-72
2022/10/28 03:43:40;;;;;;;12.00;8.95;;;14.60;82.30;;;;;;4983270;28;20167;-72
2022/10/28 03:46:06;;;;;;;13.50;10.13;;;14.60;82.20;;;;;;5015665;28;20047;-72
2022/10/28 03:48:32;;;;;;;13.00;9.38;;;14.60;82.10;;;;;;5015633;28;20041;-72
2022/10/28 03:50:57;;;;;;;13.82;9.98;;;14.60;82.50;;;;;;4999697;28;20037;-72
2022/10/28 03:53:23;;;;;;;10.73;8.65;;;14.60;82.10;;;;;;5015494;28;20033;-72
2022/10/28 03:55:57;;;;;;;17.92;11.45;;;14.50;82.00;;;;;;5015213;28;20041;-72
2022/10/28 03:58:23;;;;;;;;;;;14.50;82.00;;;;;;5015880;28;20503;-72
2022/10/28 04:00:50;;;;;;;13.15;9.80;;;14.50;81.70;;;;;;5015861;28;19921;-72
2022/10/28 04:03:18;;;;;;;11.40;8.77;;;14.40;81.90;;;;;;5018401;28;20037;-73
2022/10/28 04:05:44;;;;;;;13.60;9.98;;;14.50;82.00;;;;;;5026601;28;20061;-72
2022/10/28 04:08:09;;;;;;;15.52;11.55;;;14.50;82.00;;;;;;4998941;28;20484;-73
2022/10/28 04:10:36;;;;;;;18.77;12.52;;;14.40;82.00;;;;;;4999630;28;20048;-72
2022/10/28 04:13:03;;;;;;;17.48;13.63;;;14.40;82.00;;;;;;5015036;28;20086;-72
2022/10/28 04:15:30;;;;;;;21.30;14.10;;;14.40;82.10;;;;;;5015069;28;20106;-72
2022/10/28 04:17:55;;;;;;;18.88;13.35;;;14.40;82.20;;;;;;5015330;28;20065;-73
2022/10/28 04:20:22;;;;;;;24.55;15.98;;;14.40;82.40;;;;;;5024411;28;20399;-72
2022/10/28 04:22:47;;;;;;;22.45;14.85;;;14.40;82.50;;;;;;5028958;28;20365;-73
2022/10/28 04:25:13;;;;;;;21.42;14.65;;;14.40;82.70;;;;;;4998854;28;20041;-72
2022/10/28 04:27:38;;;;;;;22.60;15.80;;;14.40;82.80;;;;;;5015376;28;20131;-72
2022/10/28 04:30:05;;;;;;;20.33;14.45;;;14.40;83.00;;;;;;4998818;28;20479;-72
2022/10/28 04:32:30;;;;;;;19.77;14.35;;;14.40;83.10;;;;;;4998547;28;20041;-73
2022/10/28 04:34:56;;;;;;;22.13;14.85;;;14.40;83.10;;;;;;5014651;28;20083;-72
2022/10/28 04:37:22;;;;;;;19.75;16.02;;;14.40;83.20;;;;;;5015112;28;20038;-76
2022/10/28 04:39:48;;;;;;;23.27;15.43;;;14.40;83.30;;;;;;5015202;28;20040;-75
2022/10/28 04:42:14;;;;;;;25.83;15.80;;;14.40;83.40;;;;;;4999091;28;20076;-75
2022/10/28 04:44:39;;;;;;;24.13;16.73;;;14.40;83.50;;;;;;4998676;28;20168;-72
2022/10/28 04:47:05;;;;;;;26.38;15.98;;;14.40;83.60;;;;;;5014477;28;20045;-72
2022/10/28 04:49:30;;;;;;;21.35;16.00;;;14.40;83.70;;;;;;4978748;28;20044;-73
2022/10/28 04:51:56;;;;;;;28.35;16.60;;;14.40;83.70;;;;;;4995471;28;20052;-73
2022/10/28 04:54:22;;;;;;;24.13;16.23;;;14.30;83.70;;;;;;5022569;28;20041;-73
2022/10/28 04:56:47;;;;;;;21.15;14.95;;;14.40;83.80;;;;;;5031098;28;20104;-73
2022/10/28 04:59:13;;;;;;;22.75;15.98;;;14.30;83.80;;;;;;5014789;28;20091;-73
2022/10/28 05:01:39;;;;;;;22.33;15.60;;;14.30;83.80;;;;;;5014164;28;20033;-73
2022/10/28 05:04:04;;;;;;;21.30;15.35;;;14.30;83.90;;;;;;4998468;28;20050;-73
2022/10/28 05:06:30;;;;;;;26.30;16.48;;;14.30;83.90;;;;;;5015061;28;20056;-73
2022/10/28 05:08:56;;;;;;;21.20;15.40;;;14.30;83.90;;;;;;5014872;28;20046;-73
2022/10/28 05:11:21;;;;;;;22.90;16.13;;;14.30;84.00;;;;;;4982725;28;20084;-72
2022/10/28 05:13:47;;;;;;;21.05;15.23;;;14.30;84.00;;;;;;5014664;28;20049;-72
2022/10/28 05:16:13;;;;;;;20.60;14.13;;;14.30;84.10;;;;;;5014601;28;20045;-72
2022/10/28 05:18:38;;;;;;;22.90;15.65;;;14.30;84.10;;;;;;5014433;28;20099;-72
2022/10/28 05:21:04;;;;;;;26.48;15.88;;;14.30;84.10;;;;;;4998525;28;20038;-72
2022/10/28 05:23:30;;;;;;;21.45;15.73;;;14.30;84.10;;;;;;4998559;28;20490;-72
2022/10/28 05:25:55;;;;;;;23.33;14.57;;;14.30;84.10;;;;;;4998482;28;20056;-72
2022/10/28 05:28:21;;;;;;;16.67;13.48;;;14.30;84.10;;;;;;5018028;28;20042;-72
2022/10/28 05:30:47;;;;;;;22.27;13.68;;;14.20;84.00;;;;;;5017785;28;20877;-73
2022/10/28 05:33:13;;;;;;;19.98;13.02;;;14.30;84.10;;;;;;5017930;28;20076;-72
2022/10/28 05:35:38;;;;;;;20.55;13.98;;;14.20;84.00;;;;;;5018269;28;20069;-72
2022/10/28 05:38:05;;;;;;;20.48;13.95;;;14.20;84.00;;;;;;5018367;28;20049;-72
2022/10/28 05:40:32;;;;;;;17.17;12.88;;;14.20;83.90;;;;;;5017845;28;20025;-75
2022/10/28 05:42:59;;;;;;;18.63;13.43;;;14.20;83.90;;;;;;5018366;28;20193;-75
2022/10/28 05:45:24;;;;;;;22.83;13.55;;;14.20;83.90;;;;;;5001789;28;20077;-75
2022/10/28 05:47:50;;;;;;;18.40;13.43;;;14.20;83.90;;;;;;5018313;28;20045;-75
2022/10/28 05:50:18;;;;;;;28.25;14.02;;;14.20;84.00;;;;;;5018256;28;20042;-75
2022/10/28 05:52:48;;;;;;;15.77;11.38;;;14.20;84.00;;;;;;5001984;28;20045;-75
2022/10/28 05:55:15;;;;;;;16.25;12.45;;;14.20;84.00;;;;;;5001482;28;20061;-75
2022/10/28 05:57:41;;;;;;;14.77;11.60;;;14.10;83.90;;;;;;5001918;28;20054;-75
2022/10/28 06:00:08;;;;;;;15.73;12.25;;;14.10;83.90;;;;;;5001102;28;20045;-75
2022/10/28 06:02:33;;;;;;;17.30;12.23;;;14.10;83.90;;;;;;5001447;28;20498;-75
2022/10/28 06:04:59;;;;;;;21.65;12.82;;;14.10;83.90;;;;;;5013942;28;20054;-75
2022/10/28 06:07:27;;;;;;;15.68;11.85;;;14.10;83.90;;;;;;5031284;28;20046;-75
2022/10/28 06:09:52;;;;;;;24.63;13.07;;;14.10;83.90;;;;;;5018053;28;20102;-75
2022/10/28 06:12:18;;;;;;;18.35;11.45;;;14.10;83.90;;;;;;5018256;28;20462;-75
2022/10/28 06:14:44;;;;;;;18.13;12.10;;;14.10;84.00;;;;;;5001091;28;20553;-72
2022/10/28 06:17:09;;;;;;;21.88;11.95;;;14.10;84.00;;;;;;5018084;28;20369;-72
2022/10/28 06:19:35;;;;;;;20.33;11.10;;;14.10;84.00;;;;;;5017430;28;20040;-72
2022/10/28 06:22:00;;;;;;;16.17;11.52;;;14.20;84.20;;;;;;5017659;28;20135;-72
2022/10/28 06:24:26;;;;;;;19.98;11.45;;;14.20;84.20;;;;;;4989015;28;20436;-72
2022/10/28 06:26:52;;;;;;;19.35;10.85;;;14.20;84.30;;;;;;5008171;28;20127;-72
2022/10/28 06:29:19;;;;;;;19.30;11.27;;;14.20;84.20;;;;;;5017575;28;20080;-72
2022/10/28 06:31:45;;;;;;;16.13;10.95;;;14.20;84.20;;;;;;5017401;28;20103;-72
2022/10/28 06:34:11;;;;;;;20.08;10.93;;;14.20;84.30;;;;;;5000439;28;20045;-72
2022/10/28 06:36:37;;;;;;;18.33;11.02;;;14.20;84.30;;;;;;5017241;28;20562;-71
2022/10/28 06:39:04;;;;;;;20.13;10.68;;;14.20;84.30;;;;;;5017077;28;20048;-72
2022/10/28 06:41:29;;;;;;;18.20;10.02;;;14.20;84.40;;;;;;5016816;28;20056;-76
2022/10/28 06:43:55;;;;;;;15.95;10.45;;;14.20;84.40;;;;;;5044742;28;20045;-74
2022/10/28 06:46:21;;;;;;;16.67;9.90;;;14.20;84.40;;;;;;5022490;28;20057;-76
2022/10/28 06:48:46;;;;;;;17.30;10.90;;;14.20;84.50;;;;;;5014223;28;20034;-72
2022/10/28 06:51:12;;;;;;;18.23;10.40;;;14.30;84.60;;;;;;5032894;28;20037;-71
2022/10/28 06:53:38;;;;;;;17.10;9.45;;;14.30;84.60;;;;;;5016690;28;20395;-71
2022/10/28 06:56:04;;;;;;;20.48;10.43;;;14.60;84.80;;;;;;5016401;28;20068;-71
2022/10/28 06:58:30;;;;;;;18.48;9.63;;;14.40;84.60;;;;;;5016930;28;20136;-71
2022/10/28 07:00:55;;;;;;;18.77;9.70;;;14.40;84.60;;;;;;5016587;28;20556;-71
2022/10/28 07:03:21;;;;;;;18.85;9.90;;;14.40;84.50;;;;;;5000116;28;20405;-71
2022/10/28 07:05:50;;;;;;;13.90;9.27;;;14.40;84.50;;;;;;5016431;28;20060;-71
2022/10/28 07:08:16;;;;;;;18.58;10.18;;;14.50;84.60;;;;;;5016753;28;20057;-71
2022/10/28 07:10:41;;;;;;;15.55;9.52;;;14.50;84.60;;;;;;5016553;28;20038;-71
2022/10/28 07:13:07;;;;;;;21.02;10.18;;;14.50;84.50;;;;;;5016354;28;20037;-71
2022/10/28 07:15:33;;;;;;;15.20;9.40;;;14.50;84.50;;;;;;5000139;28;20033;-71
2022/10/28 07:17:59;;;;;;;17.65;9.60;;;14.50;84.40;;;;;;5016546;28;20041;-71
2022/10/28 07:20:26;;;;;;;15.73;9.75;;;14.60;84.50;;;;;;4999946;28;20063;-71
2022/10/28 07:23:00;;;;;;;15.73;8.95;;;14.60;84.50;;;;;;5016780;28;20087;-74
2022/10/28 07:25:27;;;;;;;16.50;9.13;;;14.70;84.60;;;;;;4983910;28;20106;-74
2022/10/28 07:27:53;;;;;;;15.35;9.13;;;14.70;84.60;;;;;;5016471;28;20042;-75
2022/10/28 07:30:18;;;;;;;17.48;9.50;;;14.70;84.60;;;;;;5011272;28;20041;-75
2022/10/28 07:32:44;;;;;;;17.50;9.43;;;14.70;84.50;;;;;;4995252;28;20052;-75
2022/10/28 07:35:10;;;;;;;15.52;8.85;;;14.80;84.60;;;;;;5011330;28;20048;-75
2022/10/28 07:37:37;;;;;;;16.88;8.43;;;14.90;84.60;;;;;;5011146;28;20138;-75
2022/10/28 07:40:04;;;;;;;15.55;8.45;;;14.90;84.60;;;;;;5011766;28;20476;-75
2022/10/28 07:42:31;;;;;;;19.42;8.65;;;15.00;84.50;;;;;;4999064;28;20063;-75
2022/10/28 07:44:57;;;;;;;14.10;7.88;;;15.00;84.30;;;;;;5016003;28;20038;-75
2022/10/28 07:47:23;;;;;;;17.75;8.98;;;15.10;84.10;;;;;;5015837;28;20094;-75
2022/10/28 07:49:48;;;;;;;15.80;7.53;;;15.20;84.00;;;;;;5016687;28;20048;-74
2022/10/28 07:52:14;;;;;;;15.57;7.55;;;15.30;83.90;;;;;;5016222;28;20050;-75
2022/10/28 07:54:40;;;;;;;15.40;8.63;;;15.30;83.70;;;;;;4983274;28;20396;-75
2022/10/28 07:57:05;;;;;;;15.90;8.45;;;15.40;83.60;;;;;;5015930;28;20396;-75
2022/10/28 07:59:31;;;;;;;15.73;7.90;;;15.40;83.40;;;;;;5016062;28;20042;-75
2022/10/28 08:01:56;;;;;;;13.45;7.57;;;15.50;83.20;;;;;;5015427;28;20045;-72
2022/10/28 08:04:22;;;;;;;15.63;8.68;;;15.60;83.10;;;;;;5032193;28;20068;-72
2022/10/28 08:06:48;;;;;;;12.82;7.10;;;15.60;82.90;;;;;;5015149;28;20056;-74
2022/10/28 08:09:15;;;;;;;13.68;7.22;;;15.70;83.20;;;;;;5015580;28;20049;-74
2022/10/28 08:11:40;;;;;;;13.88;7.80;;;15.80;82.70;;;;;;5016986;28;20444;-74
2022/10/28 08:14:06;;;;;;;14.07;7.68;;;15.80;82.50;;;;;;5014915;28;20076;-74
2022/10/28 08:16:32;;;;;;;11.38;6.25;;;15.90;82.50;;;;;;5007663;28;20060;-75
2022/10/28 08:18:58;;;;;;;17.00;7.03;;;16.00;82.40;;;;;;5013241;28;20060;-75
2022/10/28 08:21:25;;;;;;;15.30;7.63;;;16.10;82.30;;;;;;5023709;28;20033;-75
2022/10/28 08:23:53;;;;;;;14.15;6.85;;;16.20;82.20;;;;;;5031822;28;20483;-74
2022/10/28 08:26:19;;;;;;;12.40;7.15;;;16.30;82.00;;;;;;5006256;28;20536;-75
2022/10/28 08:28:45;;;;;;;12.70;6.50;;;16.30;81.70;;;;;;4996355;28;20037;-72
2022/10/28 08:31:13;;;;;;;16.15;7.38;;;16.40;81.40;;;;;;5017933;28;20116;-74
2022/10/28 08:33:43;;;;;;;13.55;7.10;;;16.50;81.20;;;;;;5035136;28;20549;-74
2022/10/28 08:36:11;;;;;;;17.60;7.53;;;16.60;80.80;;;;;;5031902;28;20041;-74
2022/10/28 08:38:36;;;;;;;14.20;7.55;;;16.60;80.60;;;;;;5015325;28;20488;-72
2022/10/28 08:41:12;;;;;;;13.30;6.63;;;16.70;80.50;;;;;;5015439;28;20033;-72
2022/10/28 08:43:53;;;;;;;14.02;7.00;;;16.80;80.50;;;;;;5015503;28;20041;-71
2022/10/28 08:46:22;;;;;;;11.82;6.75;;;16.90;80.60;;;;;;5009616;28;20040;-72
2022/10/28 08:48:48;;;;;;;13.60;6.95;;;17.00;80.50;;;;;;5011520;28;20395;-74
2022/10/28 08:51:19;;;;;;;11.55;6.85;;;17.10;80.20;;;;;;5011104;28;20041;-75
2022/10/28 08:53:57;;;;;;;17.13;5.88;;;17.20;80.00;;;;;;5010964;28;20045;-75
2022/10/28 08:56:57;;;;;;;14.75;6.35;;;17.30;79.80;;;;;;5010880;28;20124;-75
2022/10/28 08:59:37;;;;;;;12.20;5.93;;;17.40;79.20;;;;;;4990099;28;20045;-75
2022/10/28 09:02:17;;;;;;;15.00;7.57;;;17.50;78.90;;;;;;5012136;28;20112;-72
2022/10/28 09:04:45;;;;;;;15.57;6.25;;;17.50;78.70;;;;;;5014515;28;20064;-72
2022/10/28 09:07:17;;;;;;;10.90;5.45;;;17.60;78.40;;;;;;5014619;28;20437;-72
2022/10/28 09:09:44;;;;;;;14.20;6.65;;;17.70;78.00;;;;;;5014961;28;20131;-72
2022/10/28 09:12:42;;;;;;;12.88;6.10;;;17.70;77.80;;;;;;5014111;28;20037;-72
2022/10/28 09:15:22;;;;;;;11.75;5.75;;;17.80;77.30;;;;;;5014031;28;20142;-72
2022/10/28 09:17:51;;;;;;;10.40;5.53;;;17.80;77.40;;;;;;5014833;28;20116;-72
2022/10/28 09:20:49;;;;;;;10.40;5.72;;;17.90;77.10;;;;;;5014926;28;20033;-72
2022/10/28 09:23:22;;;;;;;11.05;5.43;;;17.90;76.70;;;;;;5014263;28;20052;-72
2022/10/28 09:26:00;;;;;;;16.03;6.33;;;17.90;76.80;;;;;;5014311;28;20040;-72
2022/10/28 09:28:40;;;;;;;15.25;6.35;;;17.90;76.60;;;;;;5013768;28;20299;-72
2022/10/28 09:31:27;;;;;;;12.02;6.07;;;18.00;76.30;;;;;;5013780;28;20464;-72
2022/10/28 09:34:05;;;;;;;12.50;6.55;;;18.00;76.20;;;;;;5014264;28;20044;-72
2022/10/28 09:36:40;;;;;;;12.90;6.57;;;18.00;76.10;;;;;;5014318;28;20096;-75
2022/10/28 09:39:15;;;;;;;12.93;5.47;;;18.00;75.90;;;;;;5014725;28;20061;-75
2022/10/28 09:41:43;;;;;;;13.68;6.45;;;18.00;75.90;;;;;;5014242;28;20385;-79
2022/10/28 09:44:14;;;;;;;13.95;5.90;;;18.00;75.90;;;;;;5012928;28;21396;-75
2022/10/28 09:46:40;;;;;;;11.13;5.85;;;18.00;75.80;;;;;;5030057;28;20383;-76
2022/10/28 09:49:15;;;;;;;16.65;6.38;;;18.00;75.90;;;;;;5014517;28;20124;-75
2022/10/28 09:51:58;;;;;;;13.18;6.03;;;18.00;75.80;;;;;;5012965;28;20438;-75
2022/10/28 09:54:36;;;;;;;11.05;5.47;;;18.00;75.80;;;;;;5014036;28;20033;-75
2022/10/28 09:57:03;;;;;;;13.07;6.53;;;18.00;75.80;;;;;;5013070;28;20051;-75
2022/10/28 09:59:29;;;;;;;14.68;7.10;;;18.00;75.90;;;;;;5013520;28;20364;-75
2022/10/28 10:01:55;;;;;;;16.02;6.40;;;18.00;75.90;;;;;;5012400;28;20139;-75
2022/10/28 10:04:26;;;;;;;14.60;6.32;;;18.10;76.10;;;;;;5013225;28;20033;-77
2022/10/28 10:07:32;;;;;;;13.95;6.25;;;18.10;76.30;;;;;;5013799;28;20088;-77
2022/10/28 10:09:59;;;;;;;13.52;6.65;;;18.10;76.40;;;;;;5014103;28;21476;-76
2022/10/28 10:12:26;;;;;;;12.75;6.07;;;18.10;76.50;;;;;;5012860;28;20041;-76
2022/10/28 10:14:55;;;;;;;13.38;6.47;;;18.20;76.40;;;;;;5013673;28;20121;-76
2022/10/28 10:17:28;;;;;;;15.88;6.68;;;18.30;76.20;;;;;;5013875;28;20476;-77
2022/10/28 10:20:06;;;;;;;13.60;6.28;;;18.30;76.00;;;;;;5013398;28;20034;-75
2022/10/28 10:22:35;;;;;;;15.60;6.70;;;18.30;76.00;;;;;;4997332;28;20037;-76
2022/10/28 10:25:02;;;;;;;11.38;5.40;;;18.40;75.80;;;;;;4997558;28;20034;-76
2022/10/28 10:27:29;;;;;;;15.35;6.45;;;18.40;75.70;;;;;;5012507;28;20033;-76
2022/10/28 10:29:57;;;;;;;14.52;6.28;;;18.50;75.50;;;;;;5013011;28;20045;-77
2022/10/28 10:32:32;;;;;;;11.75;6.30;;;18.60;76.00;;;;;;4996946;28;20037;-77
2022/10/28 10:35:03;;;;;;;12.07;6.32;;;18.60;75.30;;;;;;5013180;28;20049;-77
2022/10/28 10:37:34;;;;;;;12.32;5.70;;;18.70;75.50;;;;;;4997224;28;20071;-76
2022/10/28 10:40:05;;;;;;;12.93;6.18;;;18.70;75.50;;;;;;5012263;28;20543;-75
2022/10/28 10:42:32;;;;;;;16.42;6.68;;;18.80;75.20;;;;;;5012247;28;20515;-75
2022/10/28 10:45:25;;;;;;;11.15;6.28;;;18.90;75.20;;;;;;5012099;28;20080;-76
2022/10/28 10:48:14;;;;;;;16.75;6.38;;;18.90;74.90;;;;;;5013279;28;20503;-75
2022/10/28 10:50:46;;;;;;;18.27;7.03;;;19.00;74.80;;;;;;5013655;28;20048;-75
2022/10/28 10:53:22;;;;;;;14.98;5.93;;;19.00;74.70;;;;;;5012958;28;20049;-75
2022/10/28 10:56:00;;;;;;;14.35;5.78;;;19.10;74.60;;;;;;5012811;28;20065;-76
2022/10/28 10:58:29;;;;;;;17.20;5.97;;;19.10;74.60;;;;;;5012338;28;20077;-76
2022/10/28 11:00:58;;;;;;;13.35;6.40;;;19.20;74.40;;;;;;5028382;28;20037;-72
2022/10/28 11:03:35;;;;;;;10.73;5.50;;;19.20;74.30;;;;;;5028586;28;20045;-71
2022/10/28 11:06:02;;;;;;;13.43;6.53;;;19.30;74.10;;;;;;5012595;28;20059;-71
2022/10/28 11:08:38;;;;;;;14.07;5.32;;;19.30;74.00;;;;;;5013226;28;20132;-71
2022/10/28 11:11:34;;;;;;;10.48;5.72;;;19.40;73.90;;;;;;5000519;28;20045;-72
2022/10/28 11:14:07;;;;;;;12.18;5.72;;;19.40;73.70;;;;;;4989757;28;20059;-72
2022/10/28 11:16:45;;;;;;;14.13;6.27;;;19.50;73.70;;;;;;5016448;28;20473;-71
2022/10/28 11:19:33;;;;;;;13.68;5.55;;;19.50;73.50;;;;;;5015268;28;20292;-72
2022/10/28 11:22:11;;;;;;;12.13;5.40;;;19.60;73.20;;;;;;5014635;28;20034;-72
2022/10/28 11:25:00;;;;;;;14.20;5.45;;;19.60;73.10;;;;;;5014900;28;20037;-72
2022/10/28 11:27:51;;;;;;;13.02;5.68;;;19.70;73.00;;;;;;5000071;28;20049;-72
2022/10/28 11:30:20;;;;;;;9.93;5.80;;;19.70;73.00;;;;;;5016468;28;20041;-72
2022/10/28 11:32:57;;;;;;;15.35;6.30;;;19.70;73.00;;;;;;5016233;28;20052;-72
2022/10/28 11:35:44;;;;;;;14.05;5.68;;;19.80;73.00;;;;;;5015709;28;20041;-72
2022/10/28 11:38:32;;;;;;;11.70;5.47;;;19.80;72.90;;;;;;5010096;28;20048;-72
2022/10/28 11:41:16;;;;;;;15.80;5.53;;;19.80;72.50;;;;;;5027645;28;20030;-72
2022/10/28 11:43:57;;;;;;;14.48;4.90;;;19.90;72.60;;;;;;5000917;28;20396;-72
2022/10/28 11:46:41;;;;;;;13.10;5.90;;;19.90;72.60;;;;;;5001146;28;20046;-72
2022/10/28 11:49:36;;;;;;;12.77;5.05;;;20.00;72.40;;;;;;5001270;28;20045;-75
2022/10/28 11:52:01;;;;;;;14.93;5.25;;;20.00;72.10;;;;;;5011669;28;20037;-75
2022/10/28 11:54:27;;;;;;;12.65;5.45;;;20.00;72.10;;;;;;5011829;28;20494;-75
2022/10/28 11:57:08;;;;;;;10.10;5.00;;;20.10;71.70;;;;;;5011678;28;20048;-75
2022/10/28 11:59:53;;;;;;;11.57;5.97;;;20.10;71.60;;;;;;5010311;28;20057;-75
2022/10/28 12:02:37;;;;;;;;;;;20.10;71.60;;;;;;5012470;28;20061;-75
2022/10/28 12:05:29;;;;;;;12.63;5.68;;;20.10;72.20;;;;;;5010673;28;19917;-75
2022/10/28 12:08:08;;;;;;;14.10;5.82;;;20.10;71.80;;;;;;5012154;28;20131;-75
2022/10/28 12:10:59;;;;;;;14.73;5.82;;;20.10;71.50;;;;;;5010593;28;20041;-75
2022/10/28 12:13:44;;;;;;;13.45;5.20;;;20.20;71.60;;;;;;5011176;28;20038;-75
2022/10/28 12:16:16;;;;;;;15.32;6.22;;;20.20;71.60;;;;;;5010196;28;20040;-75
2022/10/28 12:18:55;;;;;;;14.43;6.00;;;20.20;71.50;;;;;;5010385;28;20132;-75
2022/10/28 12:21:32;;;;;;;17.70;5.85;;;20.30;71.80;;;;;;5011237;28;20132;-76
2022/10/28 12:23:58;;;;;;;11.57;5.57;;;20.30;71.80;;;;;;5027318;28;20045;-76
2022/10/28 12:26:39;;;;;;;14.23;6.60;;;20.30;71.80;;;;;;5010294;28;20041;-75
2022/10/28 12:29:16;;;;;;;14.30;5.93;;;20.30;71.60;;;;;;5010210;28;20380;-75
2022/10/28 12:31:48;;;;;;;16.23;6.07;;;20.30;71.80;;;;;;5010528;28;20038;-75
2022/10/28 12:34:19;;;;;;;12.77;6.10;;;20.30;71.60;;;;;;5010215;28;20129;-75
2022/10/28 12:36:58;;;;;;;13.38;6.50;;;20.30;71.60;;;;;;5011271;28;20067;-75
2022/10/28 12:39:37;;;;;;;16.02;7.25;;;20.40;71.50;;;;;;4995391;28;20030;-75
2022/10/28 12:42:11;;;;;;;17.83;6.85;;;20.40;71.50;;;;;;5010282;28;20084;-75
2022/10/28 12:44:39;;;;;;;11.95;5.25;;;20.40;71.60;;;;;;5026453;28;20049;-75
2022/10/28 12:47:20;;;;;;;14.52;6.80;;;20.40;71.60;;;;;;5010789;28;20045;-75
2022/10/28 12:49:48;;;;;;;15.43;6.07;;;20.40;71.70;;;;;;5011161;28;20118;-75
2022/10/28 12:52:39;;;;;;;10.40;6.15;;;20.40;72.00;;;;;;5011196;28;20045;-75
2022/10/28 12:55:40;;;;;;;12.30;5.60;;;20.50;72.00;;;;;;4993673;28;20140;-71
2022/10/28 12:58:30;;;;;;;17.38;7.00;;;20.50;72.10;;;;;;5010638;28;20049;-76
2022/10/28 13:01:08;;;;;;;15.65;5.80;;;20.50;72.10;;;;;;5009839;28;20045;-76
2022/10/28 13:03:35;;;;;;;13.30;5.78;;;20.50;72.40;;;;;;5010533;28;20053;-75
2022/10/28 13:06:40;;;;;;;14.98;6.05;;;20.50;72.40;;;;;;5010568;28;20124;-75
2022/10/28 13:09:32;;;;;;;14.70;6.15;;;20.50;72.50;;;;;;5026288;28;20081;-76
2022/10/28 13:12:21;;;;;;;11.40;5.93;;;20.60;72.50;;;;;;5010983;28;20373;-76
2022/10/28 13:15:24;;;;;;;9.43;4.93;;;20.60;72.60;;;;;;5010461;28;20381;-76
2022/10/28 13:18:27;;;;;;;16.60;7.13;;;20.60;72.50;;;;;;4976001;28;20054;-76
2022/10/28 13:20:58;;;;;;;10.23;5.28;;;20.70;72.70;;;;;;5010486;28;20128;-76
2022/10/28 13:23:28;;;;;;;11.75;5.63;;;20.60;72.60;;;;;;5009619;28;20038;-76
2022/10/28 13:26:11;;;;;;;12.55;5.32;;;20.70;72.40;;;;;;5010319;28;20049;-76
2022/10/28 13:28:45;;;;;;;10.48;5.10;;;20.70;71.80;;;;;;5011365;28;20120;-76
2022/10/28 13:31:11;;;;;;;12.10;5.43;;;20.70;71.30;;;;;;5010309;28;20099;-72
2022/10/28 13:33:38;;;;;;;10.57;5.38;;;20.70;71.10;;;;;;5010540;28;20052;-72
2022/10/28 13:36:23;;;;;;;10.27;5.50;;;20.70;70.60;;;;;;4993713;28;20033;-72
2022/10/28 13:38:55;;;;;;;10.75;5.25;;;20.70;69.90;;;;;;5010443;28;20041;-72
2022/10/28 13:41:31;;;;;;;13.93;5.10;;;20.70;69.90;;;;;;5010260;28;20065;-72
2022/10/28 13:44:18;;;;;;;13.05;5.35;;;20.60;69.80;;;;;;5010636;28;20123;-72
2022/10/28 13:47:02;;;;;;;14.05;5.53;;;20.60;69.90;;;;;;4989312;28;20049;-72
2022/10/28 13:49:29;;;;;;;12.02;5.65;;;20.60;69.60;;;;;;5012948;28;20048;-72
2022/10/28 13:52:12;;;;;;;15.20;5.15;;;20.60;69.80;;;;;;5013586;28;20124;-73
2022/10/28 13:54:43;;;;;;;13.57;6.18;;;20.60;69.60;;;;;;5013565;28;20107;-72
2022/10/28 13:57:33;;;;;;;11.35;5.65;;;20.60;69.70;;;;;;5013910;28;20396;-72
2022/10/28 14:00:00;;;;;;;12.00;5.63;;;20.50;69.70;;;;;;5013862;28;20061;-72
2022/10/28 14:02:33;;;;;;;12.63;5.57;;;20.50;69.80;;;;;;5013333;28;20065;-72
2022/10/28 14:05:03;;;;;;;11.55;5.85;;;20.50;69.80;;;;;;5013108;28;20136;-72
2022/10/28 14:07:31;;;;;;;10.00;5.47;;;20.50;69.80;;;;;;5013897;28;20053;-72
2022/10/28 14:10:18;;;;;;;17.48;6.90;;;20.40;69.80;;;;;;4997329;28;20034;-72